Time;durP1;ratioP1;P1;durP2;ratioP2;P2;SDS_P1;SDS_P2;PMS_P1;PMS_P2;Temp;Humidity;BMP_temperature;BMP_pressure;BME280_temperature;BME280_humidity;BME280_pressure;Samples;Min_cycle;Max_cycle;Signal;HPM_P1;HPM_P2
2023/10/24 00:02:06;;;;;;;8.25;5.30;;;;;;;;;;5013655;28;20046;-84
2023/10/24 00:04:33;;;;;;;8.90;4.90;;;;;;;;;;5013582;28;20050;-83
2023/10/24 00:07:00;;;;;;;8.48;5.20;;;;;;;;;;5013717;28;20081;-84
2023/10/24 00:09:28;;;;;;;9.75;5.72;;;;;;;;;;5013970;28;20054;-83
2023/10/24 00:11:55;;;;;;;12.07;5.72;;;;;;;;;;5013372;28;20520;-84
2023/10/24 00:14:22;;;;;;;7.80;5.53;;;;;;;;;;5016564;28;20054;-83
2023/10/24 00:16:49;;;;;;;9.60;5.03;;;;;;;;;;5014351;28;20051;-84
2023/10/24 00:19:17;;;;;;;9.23;5.30;;;;;;;;;;5014347;28;20050;-84
2023/10/24 00:21:44;;;;;;;9.90;5.80;;;;;;;;;;5013338;28;20050;-84
2023/10/24 00:24:12;;;;;;;9.32;5.63;;;;;;;;;;5014700;28;20467;-84
2023/10/24 00:26:39;;;;;;;7.43;5.38;;;;;;;;;;5014344;28;20049;-84
2023/10/24 00:29:07;;;;;;;15.82;6.32;;;;;;;;;;5013418;28;20057;-83
2023/10/24 00:31:34;;;;;;;10.43;5.43;;;;;;;;;;5013582;28;20081;-83
2023/10/24 00:34:01;;;;;;;11.27;5.07;;;;;;;;;;5013070;28;20088;-83
2023/10/24 00:36:28;;;;;;;9.63;5.93;;;;;;;;;;5013308;28;20046;-83
2023/10/24 00:38:56;;;;;;;12.65;6.57;;;;;;;;;;5012682;28;20504;-83
2023/10/24 00:41:23;;;;;;;9.90;5.50;;;;;;;;;;5013995;28;20042;-83
2023/10/24 00:43:50;;;;;;;10.23;5.75;;;;;;;;;;5016285;28;20054;-83
2023/10/24 00:46:17;;;;;;;11.60;6.18;;;;;;;;;;5017720;28;20057;-83
2023/10/24 00:48:45;;;;;;;10.38;5.93;;;;;;;;;;5016229;28;20050;-83
2023/10/24 00:51:12;;;;;;;7.40;4.88;;;;;;;;;;5017307;28;20069;-83
2023/10/24 00:53:39;;;;;;;17.27;6.47;;;;;;;;;;5017128;28;20049;-83
2023/10/24 00:56:10;;;;;;;8.30;5.85;;;;;;;;;;5017504;28;20133;-83
2023/10/24 00:58:38;;;;;;;8.38;5.32;;;;;;;;;;4998762;28;20105;-83
2023/10/24 01:01:10;;;;;;;15.63;5.93;;;;;;;;;;4996357;28;20421;-83
2023/10/24 01:03:38;;;;;;;14.15;6.13;;;;;;;;;;4996447;28;20046;-83
2023/10/24 01:06:06;;;;;;;10.10;6.28;;;;;;;;;;4996462;28;20504;-83
2023/10/24 01:08:33;;;;;;;11.05;5.80;;;;;;;;;;4995898;28;20058;-83
2023/10/24 01:11:00;;;;;;;7.38;5.25;;;;;;;;;;4997763;28;20058;-82
2023/10/24 01:13:28;;;;;;;9.63;6.18;;;;;;;;;;4997547;28;20421;-83
2023/10/24 01:15:55;;;;;;;10.07;5.00;;;;;;;;;;4998423;28;20437;-83
2023/10/24 01:18:22;;;;;;;11.07;6.55;;;;;;;;;;4997924;28;20050;-83
2023/10/24 01:20:49;;;;;;;12.25;5.65;;;;;;;;;;4996864;28;20101;-82
2023/10/24 01:23:17;;;;;;;7.97;4.95;;;;;;;;;;4995903;28;20050;-83
2023/10/24 01:25:45;;;;;;;9.98;5.30;;;;;;;;;;4997429;28;20097;-83
2023/10/24 01:28:12;;;;;;;8.13;5.28;;;;;;;;;;4997292;28;20054;-83
2023/10/24 01:30:40;;;;;;;11.00;6.05;;;;;;;;;;4996958;28;20053;-82
2023/10/24 01:33:07;;;;;;;7.13;5.45;;;;;;;;;;4995479;28;20054;-83
2023/10/24 01:35:34;;;;;;;10.05;5.90;;;;;;;;;;4996580;28;20046;-82
2023/10/24 01:38:02;;;;;;;8.10;5.30;;;;;;;;;;4995328;28;20053;-82
2023/10/24 01:40:29;;;;;;;10.15;5.70;;;;;;;;;;4997095;28;20054;-83
2023/10/24 01:42:56;;;;;;;7.80;5.90;;;;;;;;;;4995331;28;20054;-83
2023/10/24 01:45:24;;;;;;;6.82;5.40;;;;;;;;;;4995418;28;20046;-82
2023/10/24 01:47:51;;;;;;;8.32;5.60;;;;;;;;;;5006068;28;20042;-82
2023/10/24 01:50:18;;;;;;;9.07;5.72;;;;;;;;;;5016828;28;20100;-83
2023/10/24 01:52:45;;;;;;;8.32;5.95;;;;;;;;;;5015128;28;20077;-84
2023/10/24 01:55:13;;;;;;;9.05;5.57;;;;;;;;;;5014860;28;20046;-83
2023/10/24 01:57:40;;;;;;;10.25;5.53;;;;;;;;;;5016453;28;20488;-83
2023/10/24 02:00:07;;;;;;;7.03;5.38;;;;;;;;;;5014563;28;20046;-83
2023/10/24 02:02:35;;;;;;;6.65;5.35;;;;;;;;;;5015590;28;20479;-83
2023/10/24 02:05:02;;;;;;;5.00;4.47;;;;;;;;;;5014682;28;20137;-83
2023/10/24 02:07:30;;;;;;;6.85;5.28;;;;;;;;;;5015785;28;20132;-83
2023/10/24 02:09:57;;;;;;;7.05;5.25;;;;;;;;;;5014408;28;20140;-83
2023/10/24 02:12:24;;;;;;;6.40;4.70;;;;;;;;;;5014575;28;20526;-83
2023/10/24 02:14:54;;;;;;;10.63;5.72;;;;;;;;;;5015698;28;20056;-83
2023/10/24 02:17:21;;;;;;;5.47;4.63;;;;;;;;;;5014883;28;20057;-83
2023/10/24 02:19:49;;;;;;;12.05;5.22;;;;;;;;;;5015032;28;20057;-83
2023/10/24 02:22:16;;;;;;;9.20;5.13;;;;;;;;;;5014936;28;20054;-83
2023/10/24 02:24:43;;;;;;;6.03;4.63;;;;;;;;;;4995933;28;20043;-83
2023/10/24 02:27:10;;;;;;;8.32;5.18;;;;;;;;;;4994352;28;20255;-83
2023/10/24 02:29:38;;;;;;;7.20;4.60;;;;;;;;;;4994031;28;20096;-83
2023/10/24 02:32:06;;;;;;;5.63;4.80;;;;;;;;;;4993910;28;20112;-83
2023/10/24 02:34:33;;;;;;;5.38;4.40;;;;;;;;;;5011341;28;20585;-83
2023/10/24 02:37:00;;;;;;;9.73;4.70;;;;;;;;;;5015010;28;20125;-83
2023/10/24 02:39:27;;;;;;;6.22;4.60;;;;;;;;;;5013418;28;20046;-83
2023/10/24 02:41:55;;;;;;;10.63;5.32;;;;;;;;;;5012849;28;20350;-83
2023/10/24 02:44:22;;;;;;;6.75;4.63;;;;;;;;;;5013165;28;20069;-83
2023/10/24 02:46:50;;;;;;;5.80;4.47;;;;;;;;;;5013157;28;20054;-83
2023/10/24 02:49:18;;;;;;;6.32;4.70;;;;;;;;;;5014468;28;20049;-83
2023/10/24 02:51:45;;;;;;;9.43;5.20;;;;;;;;;;5014510;28;20042;-83
2023/10/24 02:54:12;;;;;;;8.35;4.90;;;;;;;;;;5014580;28;20069;-83
2023/10/24 02:56:39;;;;;;;10.40;4.90;;;;;;;;;;5012987;28;20048;-83
2023/10/24 02:59:07;;;;;;;10.25;5.40;;;;;;;;;;5014226;28;20046;-83
2023/10/24 03:01:34;;;;;;;7.03;5.03;;;;;;;;;;5015303;28;20053;-83
2023/10/24 03:04:02;;;;;;;5.00;4.30;;;;;;;;;;5012987;28;20513;-83
2023/10/24 03:06:29;;;;;;;8.85;5.03;;;;;;;;;;5013887;28;20049;-83
2023/10/24 03:08:56;;;;;;;6.05;4.65;;;;;;;;;;5012471;28;20050;-83
2023/10/24 03:11:24;;;;;;;7.22;4.80;;;;;;;;;;5012949;28;20504;-83
2023/10/24 03:13:54;;;;;;;7.43;4.60;;;;;;;;;;5014304;28;20057;-83
2023/10/24 03:16:22;;;;;;;6.78;4.65;;;;;;;;;;5013028;28;20049;-83
2023/10/24 03:18:50;;;;;;;7.25;4.50;;;;;;;;;;5014225;28;20053;-83
2023/10/24 03:21:17;;;;;;;6.30;4.43;;;;;;;;;;5015044;28;20157;-83
2023/10/24 03:23:44;;;;;;;6.30;3.83;;;;;;;;;;5012657;28;20505;-83
2023/10/24 03:26:13;;;;;;;7.28;4.43;;;;;;;;;;5014595;28;20068;-83
2023/10/24 03:28:40;;;;;;;6.22;4.18;;;;;;;;;;5012873;28;20060;-83
2023/10/24 03:31:08;;;;;;;6.03;4.47;;;;;;;;;;5013285;28;20516;-83
2023/10/24 03:33:35;;;;;;;6.70;3.67;;;;;;;;;;5015143;28;20136;-82
2023/10/24 03:36:03;;;;;;;4.78;3.65;;;;;;;;;;5013980;28;20100;-83
2023/10/24 03:38:31;;;;;;;4.40;3.60;;;;;;;;;;5012537;28;20514;-83
2023/10/24 03:40:58;;;;;;;6.63;4.18;;;;;;;;;;5005574;28;20050;-83
2023/10/24 03:43:25;;;;;;;4.15;3.75;;;;;;;;;;5012135;28;20053;-83
2023/10/24 03:45:53;;;;;;;4.82;3.80;;;;;;;;;;5013955;28;20181;-83
2023/10/24 03:48:20;;;;;;;14.18;4.55;;;;;;;;;;5014665;28;20053;-83
2023/10/24 03:50:47;;;;;;;5.35;3.90;;;;;;;;;;5013127;28;20107;-83
2023/10/24 03:53:14;;;;;;;6.53;4.32;;;;;;;;;;5012695;28;20459;-82
2023/10/24 03:55:41;;;;;;;6.47;4.40;;;;;;;;;;5013392;28;20135;-83
2023/10/24 03:58:09;;;;;;;4.85;4.22;;;;;;;;;;5014278;28;20046;-83
2023/10/24 04:00:36;;;;;;;8.18;4.70;;;;;;;;;;5013858;28;20042;-83
2023/10/24 04:03:04;;;;;;;5.80;4.35;;;;;;;;;;5016446;28;20133;-83
2023/10/24 04:05:34;;;;;;;9.52;4.90;;;;;;;;;;5027658;28;20054;-83
2023/10/24 04:08:02;;;;;;;7.75;4.13;;;;;;;;;;5025485;28;20057;-83
2023/10/24 04:10:30;;;;;;;6.43;4.18;;;;;;;;;;5027121;28;20050;-83
2023/10/24 04:12:57;;;;;;;5.30;4.20;;;;;;;;;;5028510;28;20038;-83
2023/10/24 04:15:24;;;;;;;9.02;5.05;;;;;;;;;;5020066;28;20056;-83
2023/10/24 04:17:51;;;;;;;21.80;6.30;;;;;;;;;;5012276;28;20112;-83
2023/10/24 04:20:19;;;;;;;9.98;4.55;;;;;;;;;;5015405;28;20501;-83
2023/10/24 04:22:49;;;;;;;11.18;5.22;;;;;;;;;;5015816;28;20045;-83
2023/10/24 04:25:16;;;;;;;7.03;4.72;;;;;;;;;;5015679;28;20198;-83
2023/10/24 04:27:44;;;;;;;4.60;3.92;;;;;;;;;;5016692;28;20050;-83
2023/10/24 04:30:11;;;;;;;6.78;4.55;;;;;;;;;;5016203;28;20054;-83
2023/10/24 04:32:38;;;;;;;4.57;4.20;;;;;;;;;;5027284;28;20061;-83
2023/10/24 04:35:06;;;;;;;7.82;4.80;;;;;;;;;;5028061;28;20096;-83
2023/10/24 04:37:33;;;;;;;7.10;5.40;;;;;;;;;;5023222;28;20042;-83
2023/10/24 04:40:01;;;;;;;5.28;4.72;;;;;;;;;;5018849;28;20050;-84
2023/10/24 04:42:28;;;;;;;7.45;5.32;;;;;;;;;;5028706;28;20046;-83
2023/10/24 04:44:55;;;;;;;8.50;5.35;;;;;;;;;;5032989;28;20046;-83
2023/10/24 04:47:22;;;;;;;6.70;5.38;;;;;;;;;;5033044;28;20053;-83
2023/10/24 04:49:49;;;;;;;12.13;5.78;;;;;;;;;;5031838;28;20041;-83
2023/10/24 04:52:17;;;;;;;11.75;5.03;;;;;;;;;;5031301;28;20045;-83
2023/10/24 04:54:44;;;;;;;7.55;5.25;;;;;;;;;;5031700;28;20049;-83
2023/10/24 04:57:11;;;;;;;11.32;4.22;;;;;;;;;;5032125;28;20077;-84
2023/10/24 04:59:38;;;;;;;10.77;4.80;;;;;;;;;;5032029;28;20065;-83
2023/10/24 05:02:06;;;;;;;10.88;6.22;;;;;;;;;;5031109;28;20069;-83
2023/10/24 05:04:33;;;;;;;7.10;5.07;;;;;;;;;;5031043;28;20073;-83
2023/10/24 05:07:01;;;;;;;8.07;4.72;;;;;;;;;;5030034;28;20050;-84
2023/10/24 05:09:28;;;;;;;11.27;5.78;;;;;;;;;;5029566;28;20053;-83
2023/10/24 05:11:55;;;;;;;8.00;5.50;;;;;;;;;;5030031;28;20571;-83
2023/10/24 05:14:23;;;;;;;12.98;6.22;;;;;;;;;;5029157;28;20054;-83
2023/10/24 05:16:50;;;;;;;11.10;6.10;;;;;;;;;;5027536;28;20120;-83
2023/10/24 05:19:17;;;;;;;13.18;6.43;;;;;;;;;;5029006;28;20078;-83
2023/10/24 05:21:44;;;;;;;10.02;6.50;;;;;;;;;;5026973;28;20045;-83
2023/10/24 05:24:11;;;;;;;13.40;7.53;;;;;;;;;;5028677;28;20496;-82
2023/10/24 05:26:39;;;;;;;13.65;8.18;;;;;;;;;;5027668;28;20058;-81
2023/10/24 05:29:06;;;;;;;16.95;9.18;;;;;;;;;;5026054;28;20096;-83
2023/10/24 05:31:33;;;;;;;17.52;9.93;;;;;;;;;;5026851;28;20057;-82
2023/10/24 05:34:00;;;;;;;12.90;7.93;;;;;;;;;;5025029;28;20050;-83
2023/10/24 05:36:28;;;;;;;12.70;8.30;;;;;;;;;;5026875;28;20054;-83
2023/10/24 05:38:55;;;;;;;13.95;8.38;;;;;;;;;;5024623;28;20519;-83
2023/10/24 05:41:23;;;;;;;12.43;9.07;;;;;;;;;;5025781;28;20099;-83
2023/10/24 05:43:50;;;;;;;11.38;7.80;;;;;;;;;;5023972;28;20050;-83
2023/10/24 05:46:17;;;;;;;15.32;9.00;;;;;;;;;;5024029;28;20050;-83
2023/10/24 05:48:45;;;;;;;14.55;9.38;;;;;;;;;;5023505;28;20045;-83
2023/10/24 05:51:21;;;;;;;13.48;9.40;;;;;;;;;;5023197;28;20100;-83
2023/10/24 05:53:50;;;;;;;13.20;8.45;;;;;;;;;;5023422;28;20101;-83
2023/10/24 05:56:17;;;;;;;14.13;10.93;;;;;;;;;;5024872;28;20109;-83
2023/10/24 05:58:45;;;;;;;15.18;10.90;;;;;;;;;;5023894;28;20416;-82
2023/10/24 06:01:12;;;;;;;15.65;10.45;;;;;;;;;;5024936;28;20057;-83
2023/10/24 06:03:40;;;;;;;17.30;12.13;;;;;;;;;;5025188;28;20046;-83
2023/10/24 06:06:07;;;;;;;17.17;12.13;;;;;;;;;;5022650;28;20548;-82
2023/10/24 06:08:35;;;;;;;21.40;13.65;;;;;;;;;;5022573;28;20124;-82
2023/10/24 06:11:03;;;;;;;18.80;12.32;;;;;;;;;;5024448;28;20080;-83
2023/10/24 06:13:31;;;;;;;9.85;7.80;;;;;;;;;;5021209;28;20050;-83
2023/10/24 06:16:17;;;;;;;9.20;6.45;;;;;;;;;;5021363;28;20481;-83
2023/10/24 06:18:44;;;;;;;7.53;5.45;;;;;;;;;;5023212;28;20046;-82
2023/10/24 06:21:12;;;;;;;10.95;6.97;;;;;;;;;;5022717;28;20416;-82
2023/10/24 06:23:39;;;;;;;12.98;5.88;;;;;;;;;;5021675;28;20112;-82
2023/10/24 06:26:13;;;;;;;10.13;7.15;;;;;;;;;;5022013;28;20092;-82
2023/10/24 06:28:41;;;;;;;11.98;9.30;;;;;;;;;;5021664;28;20057;-83
2023/10/24 06:31:08;;;;;;;15.30;9.68;;;;;;;;;;5019012;28;20085;-82
2023/10/24 06:33:35;;;;;;;14.95;11.38;;;;;;;;;;5019684;28;20068;-83
2023/10/24 06:36:05;;;;;;;12.48;9.30;;;;;;;;;;5018751;28;20050;-83
2023/10/24 06:38:32;;;;;;;17.58;10.88;;;;;;;;;;5019351;28;20050;-83
2023/10/24 06:40:59;;;;;;;12.05;8.13;;;;;;;;;;5018431;28;20413;-82
2023/10/24 06:43:27;;;;;;;7.55;6.65;;;;;;;;;;5020326;28;20064;-83
2023/10/24 06:45:54;;;;;;;11.20;7.00;;;;;;;;;;5019578;28;20050;-83
2023/10/24 06:48:22;;;;;;;10.88;6.60;;;;;;;;;;5018157;28;20053;-82
2023/10/24 06:50:49;;;;;;;10.30;7.28;;;;;;;;;;5020425;28;20467;-83
2023/10/24 06:53:16;;;;;;;11.20;7.85;;;;;;;;;;5017685;28;20054;-82
2023/10/24 06:55:43;;;;;;;17.48;9.45;;;;;;;;;;5025970;28;20424;-83
2023/10/24 06:58:11;;;;;;;18.10;11.88;;;;;;;;;;5017664;28;20050;-82
2023/10/24 07:00:38;;;;;;;27.38;21.40;;;;;;;;;;5019037;28;20050;-83
2023/10/24 07:03:05;;;;;;;21.83;13.57;;;;;;;;;;5016909;28;20045;-83
2023/10/24 07:05:32;;;;;;;17.58;10.90;;;;;;;;;;5017085;28;20074;-82
2023/10/24 07:08:00;;;;;;;13.18;8.95;;;;;;;;;;5017071;28;20061;-82
2023/10/24 07:10:27;;;;;;;17.52;9.45;;;;;;;;;;5016458;28;20049;-82
2023/10/24 07:12:54;;;;;;;16.35;10.32;;;;;;;;;;5016253;28;20487;-81
2023/10/24 07:15:21;;;;;;;17.92;10.20;;;;;;;;;;5016424;28;20053;-83
2023/10/24 07:17:49;;;;;;;14.82;8.52;;;;;;;;;;5018136;28;20041;-82
2023/10/24 07:20:16;;;;;;;9.18;6.10;;;;;;;;;;5016039;28;20081;-82
2023/10/24 07:22:43;;;;;;;7.30;5.43;;;;;;;;;;5017531;28;20050;-83
2023/10/24 07:25:10;;;;;;;6.93;4.68;;;;;;;;;;5016141;28;20049;-82
2023/10/24 07:27:38;;;;;;;7.57;4.95;;;;;;;;;;5016012;28;20496;-82
2023/10/24 07:30:07;;;;;;;6.40;5.80;;;;;;;;;;5017470;28;20050;-82
2023/10/24 07:32:35;;;;;;;10.90;7.65;;;;;;;;;;5017709;28;20488;-82
2023/10/24 07:35:03;;;;;;;17.27;10.82;;;;;;;;;;5017160;28;20050;-82
2023/10/24 07:37:31;;;;;;;17.67;11.60;;;;;;;;;;5015173;28;20401;-83
2023/10/24 07:39:58;;;;;;;11.10;7.85;;;;;;;;;;5016281;28;20046;-83
2023/10/24 07:42:25;;;;;;;8.13;7.25;;;;;;;;;;5015132;28;20054;-82
2023/10/24 07:44:53;;;;;;;5.75;5.03;;;;;;;;;;5017671;28;20050;-83
2023/10/24 07:47:20;;;;;;;6.38;5.55;;;;;;;;;;5017137;28;20054;-82
2023/10/24 07:49:48;;;;;;;9.90;4.88;;;;;;;;;;5015605;28;20110;-83
2023/10/24 07:52:15;;;;;;;7.72;5.18;;;;;;;;;;5014974;28;20535;-83
2023/10/24 07:54:42;;;;;;;7.68;4.60;;;;;;;;;;5020131;28;20485;-82
2023/10/24 07:57:12;;;;;;;7.80;4.20;;;;;;;;;;5020093;28;20105;-82
2023/10/24 07:59:39;;;;;;;4.80;4.40;;;;;;;;;;5021097;28;20045;-82
2023/10/24 08:02:06;;;;;;;5.78;3.75;;;;;;;;;;5018831;28;20515;-83
2023/10/24 08:04:34;;;;;;;4.00;3.53;;;;;;;;;;5019377;28;20046;-82
2023/10/24 08:07:03;;;;;;;5.78;3.60;;;;;;;;;;5019729;28;20460;-82
2023/10/24 08:09:30;;;;;;;7.97;4.20;;;;;;;;;;5019349;28;20496;-83
2023/10/24 08:11:57;;;;;;;14.10;4.50;;;;;;;;;;5021323;28;20398;-82
2023/10/24 08:14:26;;;;;;;12.50;6.07;;;;;;;;;;5021391;28;20112;-83
2023/10/24 08:16:53;;;;;;;8.52;5.70;;;;;;;;;;5019656;28;20207;-83
2023/10/24 08:19:20;;;;;;;15.00;6.07;;;;;;;;;;5027911;28;20042;-82
2023/10/24 08:21:47;;;;;;;13.50;5.18;;;;;;;;;;5020811;28;20056;-83
2023/10/24 08:24:15;;;;;;;10.00;4.90;;;;;;;;;;5019432;28;20500;-83
2023/10/24 08:26:42;;;;;;;11.75;4.45;;;;;;;;;;5019767;28;20050;-82
2023/10/24 08:29:25;;;;;;;6.87;4.50;;;;;;;;;;5019650;28;20575;-82
2023/10/24 08:31:52;;;;;;;8.27;4.10;;;;;;;;;;5021436;28;20050;-83
2023/10/24 08:34:27;;;;;;;9.20;4.13;;;;;;;;;;5021644;28;20073;-83
2023/10/24 08:36:54;;;;;;;9.05;3.75;;;;;;;;;;5019398;28;20046;-82
2023/10/24 08:39:23;;;;;;;49.35;33.28;;;;;;;;;;5021829;28;20053;-83
2023/10/24 08:41:53;;;;;;;67.72;44.55;;;;;;;;;;5026075;28;20048;-83
2023/10/24 08:44:21;;;;;;;29.73;19.45;;;;;;;;;;5020054;28;20120;-83
2023/10/24 08:46:49;;;;;;;35.38;19.95;;;;;;;;;;5021731;28;20050;-82
2023/10/24 08:49:19;;;;;;;31.52;19.52;;;;;;;;;;5020526;28;20077;-83
2023/10/24 08:51:47;;;;;;;29.73;17.80;;;;;;;;;;5020278;28;20393;-83
2023/10/24 08:54:14;;;;;;;19.63;12.68;;;;;;;;;;5020765;28;20054;-82
2023/10/24 08:56:42;;;;;;;12.77;7.63;;;;;;;;;;5020579;28;20079;-83
2023/10/24 08:59:10;;;;;;;13.77;9.60;;;;;;;;;;5021458;28;20116;-81
2023/10/24 09:01:40;;;;;;;11.80;6.53;;;;;;;;;;5022210;28;20046;-83
2023/10/24 09:04:08;;;;;;;18.10;13.15;;;;;;;;;;5022333;28;20504;-82
2023/10/24 09:06:38;;;;;;;40.65;30.33;;;;;;;;;;5020681;28;20045;-82
2023/10/24 09:09:05;;;;;;;59.47;43.80;;;;;;;;;;5020566;28;20057;-83
2023/10/24 09:11:53;;;;;;;51.00;35.47;;;;;;;;;;5025863;28;20046;-83
2023/10/24 09:14:21;;;;;;;18.63;11.65;;;;;;;;;;5023003;28;20076;-83
2023/10/24 09:17:03;;;;;;;20.55;13.90;;;;;;;;;;5022636;28;20050;-82
2023/10/24 09:19:31;;;;;;;17.40;12.52;;;;;;;;;;5021095;28;20110;-82
2023/10/24 09:21:59;;;;;;;12.88;9.50;;;;;;;;;;5021529;28;20049;-83
2023/10/24 09:24:35;;;;;;;11.48;8.05;;;;;;;;;;5022886;28;20046;-82
2023/10/24 09:27:02;;;;;;;22.63;19.45;;;;;;;;;;5021797;28;20046;-83
2023/10/24 09:29:32;;;;;;;24.67;18.48;;;;;;;;;;5023751;28;20056;-83
2023/10/24 09:31:59;;;;;;;17.75;13.30;;;;;;;;;;5023611;28;20082;-83
2023/10/24 09:34:27;;;;;;;11.23;8.13;;;;;;;;;;5023428;28;20054;-83
2023/10/24 09:37:05;;;;;;;20.88;4.82;;;;;;;;;;5023166;28;20050;-83
2023/10/24 09:39:33;;;;;;;18.13;4.40;;;;;;;;;;5023349;28;20471;-83
2023/10/24 09:42:00;;;;;;;8.85;3.35;;;;;;;;;;5022813;28;20120;-83
2023/10/24 09:44:28;;;;;;;19.60;4.70;;;;;;;;;;5024179;28;20062;-83
2023/10/24 09:46:57;;;;;;;16.45;5.70;;;;;;;;;;5024026;28;20050;-83
2023/10/24 09:49:25;;;;;;;17.55;5.25;;;;;;;;;;5025203;28;20106;-83
2023/10/24 09:51:53;;;;;;;16.65;5.00;;;;;;;;;;5025954;28;20109;-83
2023/10/24 09:54:21;;;;;;;13.35;4.22;;;;;;;;;;5026128;28;20112;-83
2023/10/24 09:56:50;;;;;;;15.40;4.93;;;;;;;;;;5026921;28;20050;-83
2023/10/24 09:59:17;;;;;;;14.75;4.50;;;;;;;;;;5026102;28;20121;-83
2023/10/24 10:01:45;;;;;;;8.95;3.78;;;;;;;;;;5028412;28;20081;-83
2023/10/24 10:04:32;;;;;;;7.43;3.97;;;;;;;;;;5026392;28;20045;-83
2023/10/24 10:07:00;;;;;;;17.45;4.30;;;;;;;;;;5025142;28;20073;-83
2023/10/24 10:09:32;;;;;;;18.90;4.15;;;;;;;;;;5026652;28;20512;-83
2023/10/24 10:12:01;;;;;;;9.32;3.97;;;;;;;;;;5025389;28;20504;-83
2023/10/24 10:14:43;;;;;;;8.85;3.95;;;;;;;;;;5026348;28;20081;-83
2023/10/24 10:17:19;;;;;;;8.65;3.95;;;;;;;;;;5027059;28;20114;-82
2023/10/24 10:20:01;;;;;;;7.30;4.32;;;;;;;;;;5029333;28;20057;-83
2023/10/24 10:22:28;;;;;;;20.42;5.45;;;;;;;;;;5029472;28;20054;-82
2023/10/24 10:25:19;;;;;;;8.55;4.10;;;;;;;;;;5029486;28;20054;-81
2023/10/24 10:27:58;;;;;;;17.67;4.57;;;;;;;;;;5016240;28;20058;-83
2023/10/24 10:30:44;;;;;;;12.13;4.43;;;;;;;;;;5019149;28;20057;-83
2023/10/24 10:33:23;;;;;;;15.00;4.55;;;;;;;;;;5021243;28;20052;-83
2023/10/24 10:36:04;;;;;;;10.63;5.13;;;;;;;;;;5024676;28;20053;-83
2023/10/24 10:38:41;;;;;;;11.52;8.02;;;;;;;;;;5018670;28;20145;-83
2023/10/24 10:41:25;;;;;;;18.83;9.93;;;;;;;;;;5018945;28;20082;-82
2023/10/24 10:43:59;;;;;;;12.43;9.07;;;;;;;;;;5014282;28;20073;-83
2023/10/24 10:46:31;;;;;;;13.88;8.40;;;;;;;;;;5013837;28;20057;-83
2023/10/24 10:48:59;;;;;;;11.13;7.30;;;;;;;;;;5013247;28;20105;-83
2023/10/24 10:51:28;;;;;;;7.50;5.05;;;;;;;;;;5013360;28;20095;-82
2023/10/24 10:54:20;;;;;;;8.50;4.80;;;;;;;;;;5012624;28;20045;-83
2023/10/24 10:56:48;;;;;;;10.50;4.20;;;;;;;;;;5012730;28;20050;-83
2023/10/24 10:59:35;;;;;;;7.18;4.10;;;;;;;;;;5012620;28;20448;-82
2023/10/24 11:02:03;;;;;;;10.02;4.93;;;;;;;;;;5005899;28;20045;-82
2023/10/24 11:04:30;;;;;;;13.00;4.05;;;;;;;;;;5012607;28;20054;-82
2023/10/24 11:06:59;;;;;;;11.40;4.22;;;;;;;;;;5013824;28;20049;-83
2023/10/24 11:09:37;;;;;;;19.52;4.20;;;;;;;;;;5012743;28;20447;-82
2023/10/24 11:12:20;;;;;;;17.38;4.13;;;;;;;;;;5012197;28;20104;-83
2023/10/24 11:15:19;;;;;;;21.98;4.85;;;;;;;;;;5013303;28;20050;-83
2023/10/24 11:17:51;;;;;;;6.13;3.40;;;;;;;;;;4992380;28;20108;-82
2023/10/24 11:20:19;;;;;;;8.75;3.70;;;;;;;;;;5013501;28;20100;-83
2023/10/24 11:22:50;;;;;;;13.52;3.25;;;;;;;;;;5013535;28;20511;-82
2023/10/24 11:25:19;;;;;;;13.32;3.70;;;;;;;;;;5013558;28;20042;-83
2023/10/24 11:27:48;;;;;;;9.98;4.55;;;;;;;;;;5011916;28;20576;-83
2023/10/24 11:30:15;;;;;;;9.48;4.07;;;;;;;;;;5011983;28;20100;-82
2023/10/24 11:32:43;;;;;;;6.30;3.58;;;;;;;;;;5012491;28;20050;-83
2023/10/24 11:35:11;;;;;;;11.35;3.70;;;;;;;;;;5013435;28;20085;-83
2023/10/24 11:37:38;;;;;;;5.13;3.22;;;;;;;;;;5013684;28;20056;-83
2023/10/24 11:40:06;;;;;;;20.42;16.45;;;;;;;;;;5013671;28;20415;-83
2023/10/24 11:42:34;;;;;;;81.78;53.22;;;;;;;;;;5012553;28;20054;-83
2023/10/24 11:45:01;;;;;;;66.68;46.17;;;;;;;;;;5013003;28;20050;-83
2023/10/24 11:47:28;;;;;;;13.50;6.30;;;;;;;;;;5012383;28;20050;-83
2023/10/24 11:49:56;;;;;;;9.23;5.70;;;;;;;;;;5012780;28;20070;-83
2023/10/24 11:52:24;;;;;;;5.93;4.35;;;;;;;;;;5012589;28;20539;-83
2023/10/24 11:54:52;;;;;;;6.05;4.50;;;;;;;;;;5014075;28;20558;-83
2023/10/24 11:57:22;;;;;;;8.75;4.28;;;;;;;;;;5013129;28;20073;-83
2023/10/24 11:59:51;;;;;;;6.60;4.43;;;;;;;;;;5013126;28;20050;-83
2023/10/24 12:02:18;;;;;;;9.80;4.53;;;;;;;;;;5012951;28;20104;-82
2023/10/24 12:04:49;;;;;;;11.35;5.80;;;;;;;;;;5013910;28;20484;-81
2023/10/24 12:07:17;;;;;;;10.55;4.90;;;;;;;;;;5013688;28;20501;-82
2023/10/24 12:09:44;;;;;;;13.27;5.40;;;;;;;;;;5013378;28;20054;-82
2023/10/24 12:12:13;;;;;;;9.90;3.90;;;;;;;;;;5013537;28;20049;-81
2023/10/24 12:14:42;;;;;;;9.68;4.13;;;;;;;;;;5013148;28;20123;-81
2023/10/24 12:17:09;;;;;;;7.57;4.60;;;;;;;;;;5011687;28;20060;-81
2023/10/24 12:19:37;;;;;;;5.15;3.95;;;;;;;;;;5011886;28;20050;-80
2023/10/24 12:22:04;;;;;;;10.95;4.25;;;;;;;;;;5013031;28;20073;-80
2023/10/24 12:24:32;;;;;;;6.10;4.38;;;;;;;;;;5011453;28;20120;-79
2023/10/24 12:26:59;;;;;;;8.10;4.70;;;;;;;;;;5011757;28;20054;-80
2023/10/24 12:29:26;;;;;;;8.60;5.30;;;;;;;;;;5011508;28;20116;-80
2023/10/24 12:31:53;;;;;;;15.60;7.70;;;;;;;;;;5011256;28;20520;-80
2023/10/24 12:34:21;;;;;;;10.85;6.72;;;;;;;;;;5011287;28;20046;-80
2023/10/24 12:36:51;;;;;;;5.90;4.80;;;;;;;;;;5012535;28;20049;-80
2023/10/24 12:39:21;;;;;;;8.98;6.82;;;;;;;;;;5013259;28;20133;-80
2023/10/24 12:41:48;;;;;;;8.52;6.72;;;;;;;;;;5016028;28;20050;-81
2023/10/24 12:44:17;;;;;;;13.68;6.72;;;;;;;;;;5014862;28;20096;-80
2023/10/24 12:46:44;;;;;;;20.02;8.93;;;;;;;;;;5015100;28;20046;-81
2023/10/24 12:49:12;;;;;;;17.40;10.27;;;;;;;;;;5014855;28;20054;-81
2023/10/24 12:51:41;;;;;;;16.67;8.88;;;;;;;;;;5014804;28;20074;-81
2023/10/24 12:54:08;;;;;;;10.32;8.13;;;;;;;;;;5015233;28;20120;-81
2023/10/24 12:56:38;;;;;;;10.70;7.55;;;;;;;;;;5014736;28;20049;-81
2023/10/24 12:59:05;;;;;;;9.55;6.50;;;;;;;;;;5016225;28;20401;-81
2023/10/24 13:01:33;;;;;;;27.38;15.07;;;;;;;;;;5014990;28;20050;-81
2023/10/24 13:04:00;;;;;;;37.15;19.25;;;;;;;;;;5015880;28;20046;-81
2023/10/24 13:06:28;;;;;;;29.38;19.70;;;;;;;;;;5014745;28;20084;-82
2023/10/24 13:08:56;;;;;;;34.50;27.10;;;;;;;;;;5014593;28;20046;-82
2023/10/24 13:11:23;;;;;;;18.98;14.55;;;;;;;;;;5014766;28;20177;-81
2023/10/24 13:13:50;;;;;;;9.95;8.88;;;;;;;;;;5015996;28;20500;-81
2023/10/24 13:16:17;;;;;;;14.95;9.30;;;;;;;;;;5015775;28;20049;-82
2023/10/24 13:18:45;;;;;;;12.98;8.80;;;;;;;;;;5015913;28;20077;-81
2023/10/24 13:21:12;;;;;;;12.57;6.13;;;;;;;;;;5022782;28;20046;-81
2023/10/24 13:23:39;;;;;;;11.95;9.00;;;;;;;;;;5015248;28;20068;-81
2023/10/24 13:26:07;;;;;;;11.40;6.88;;;;;;;;;;5015195;28;20046;-81
2023/10/24 13:28:34;;;;;;;7.53;5.80;;;;;;;;;;5015564;28;20046;-81
2023/10/24 13:31:01;;;;;;;5.95;5.05;;;;;;;;;;5014794;28;20050;-81
2023/10/24 13:33:43;;;;;;;8.25;5.38;;;;;;;;;;5016344;28;20077;-81
2023/10/24 13:36:31;;;;;;;10.23;5.57;;;;;;;;;;5015382;28;20042;-81
2023/10/24 13:38:58;;;;;;;12.55;7.25;;;;;;;;;;5014994;28;20077;-82
2023/10/24 13:41:25;;;;;;;8.27;6.28;;;;;;;;;;5014963;28;20049;-82
2023/10/24 13:43:57;;;;;;;7.65;6.82;;;;;;;;;;5015333;28;20046;-82
2023/10/24 13:46:25;;;;;;;10.13;6.90;;;;;;;;;;5015088;28;20050;-82
2023/10/24 13:48:53;;;;;;;14.98;9.48;;;;;;;;;;5014784;28;20050;-82
2023/10/24 13:51:20;;;;;;;13.63;7.85;;;;;;;;;;5015564;28;20170;-82
2023/10/24 13:53:48;;;;;;;12.85;9.35;;;;;;;;;;5014797;28;20104;-82
2023/10/24 13:56:15;;;;;;;10.98;7.13;;;;;;;;;;5016322;28;20145;-82
2023/10/24 13:58:43;;;;;;;10.90;7.53;;;;;;;;;;5016433;28;20060;-82
2023/10/24 14:01:10;;;;;;;13.07;8.95;;;;;;;;;;5015137;28;20073;-82
2023/10/24 14:03:37;;;;;;;15.93;10.15;;;;;;;;;;5015102;28;20046;-82
2023/10/24 14:06:08;;;;;;;76.47;55.83;;;;;;;;;;5019394;28;20108;-82
2023/10/24 14:08:35;;;;;;;21.38;14.65;;;;;;;;;;5015870;28;20049;-82
2023/10/24 14:11:02;;;;;;;12.35;9.70;;;;;;;;;;5015741;28;20050;-83
2023/10/24 14:13:30;;;;;;;16.35;13.35;;;;;;;;;;5017241;28;20081;-83
2023/10/24 14:15:58;;;;;;;13.85;9.85;;;;;;;;;;5015518;28;20056;-82
2023/10/24 14:18:26;;;;;;;10.25;8.75;;;;;;;;;;5016586;28;20046;-82
2023/10/24 14:20:53;;;;;;;10.48;7.65;;;;;;;;;;5016292;28;20104;-83
2023/10/24 14:23:20;;;;;;;14.88;8.15;;;;;;;;;;5015582;28;20045;-82
2023/10/24 14:25:48;;;;;;;13.25;9.63;;;;;;;;;;5016988;28;20050;-82
2023/10/24 14:28:15;;;;;;;12.23;9.32;;;;;;;;;;5016401;28;20129;-82
2023/10/24 14:30:43;;;;;;;11.98;8.77;;;;;;;;;;5017937;28;20054;-82
2023/10/24 14:33:10;;;;;;;13.52;11.02;;;;;;;;;;5016645;28;20065;-82
2023/10/24 14:35:37;;;;;;;17.30;10.52;;;;;;;;;;5019799;28;20054;-82
2023/10/24 14:38:05;;;;;;;12.25;10.15;;;;;;;;;;5019713;28;20061;-82
2023/10/24 14:40:32;;;;;;;13.30;9.07;;;;;;;;;;5019275;28;20046;-82
2023/10/24 14:43:00;;;;;;;13.73;9.95;;;;;;;;;;5018830;28;20064;-81